sensor_id;sensor_type;location;lat;lon;timestamp;P1;P2;P0
63662;PMS5003;49815;51.618;0.336;2022-12-17T00:00:33;104;92;
63662;PMS5003;49815;51.618;0.336;2022-12-17T00:02:57;116;95;
63662;PMS5003;49815;51.618;0.336;2022-12-17T00:05:23;108;97;
63662;PMS5003;49815;51.618;0.336;2022-12-17T00:10:14;104;91;
63662;PMS5003;49815;51.618;0.336;2022-12-17T00:12:39;99;92;
63662;PMS5003;49815;51.618;0.336;2022-12-17T00:15:06;101;92;
63662;PMS5003;49815;51.618;0.336;2022-12-17T00:17:30;113;99;
63662;PMS5003;49815;51.618;0.336;2022-12-17T00:19:56;111;95;
63662;PMS5003;49815;51.618;0.336;2022-12-17T00:22:21;100;93;
63662;PMS5003;49815;51.618;0.336;2022-12-17T00:24:46;102;93;
63662;PMS5003;49815;51.618;0.336;2022-12-17T00:27:12;108;99;
63662;PMS5003;49815;51.618;0.336;2022-12-17T00:29:37;110;99;
63662;PMS5003;49815;51.618;0.336;2022-12-17T00:32:04;104;94;
63662;PMS5003;49815;51.618;0.336;2022-12-17T00:34:28;100;92;
63662;PMS5003;49815;51.618;0.336;2022-12-17T00:36:54;117;101;
63662;PMS5003;49815;51.618;0.336;2022-12-17T00:39:20;106;92;
63662;PMS5003;49815;51.618;0.336;2022-12-17T00:41:46;111;100;
63662;PMS5003;49815;51.618;0.336;2022-12-17T00:44:11;106;91;
63662;PMS5003;49815;51.618;0.336;2022-12-17T00:46:37;100;95;
63662;PMS5003;49815;51.618;0.336;2022-12-17T00:49:03;103;93;
63662;PMS5003;49815;51.618;0.336;2022-12-17T00:51:27;103;91;
63662;PMS5003;49815;51.618;0.336;2022-12-17T00:53:52;99;86;
63662;PMS5003;49815;51.618;0.336;2022-12-17T00:56:18;110;95;
63662;PMS5003;49815;51.618;0.336;2022-12-17T00:58:43;96;89;
63662;PMS5003;49815;51.618;0.336;2022-12-17T01:01:09;91;81;
63662;PMS5003;49815;51.618;0.336;2022-12-17T01:03:33;100;90;
63662;PMS5003;49815;51.618;0.336;2022-12-17T01:06:00;109;94;
63662;PMS5003;49815;51.618;0.336;2022-12-17T01:08:24;110;90;
63662;PMS5003;49815;51.618;0.336;2022-12-17T01:10:50;104;93;
63662;PMS5003;49815;51.618;0.336;2022-12-17T01:13:15;100;89;
63662;PMS5003;49815;51.618;0.336;2022-12-17T01:15:41;97;86;
63662;PMS5003;49815;51.618;0.336;2022-12-17T01:18:08;97;90;
63662;PMS5003;49815;51.618;0.336;2022-12-17T01:20:32;88;82;
63662;PMS5003;49815;51.618;0.336;2022-12-17T01:22:57;93;87;
63662;PMS5003;49815;51.618;0.336;2022-12-17T01:25:22;97;84;
63662;PMS5003;49815;51.618;0.336;2022-12-17T01:27:48;77;71;
63662;PMS5003;49815;51.618;0.336;2022-12-17T01:30:13;95;85;
63662;PMS5003;49815;51.618;0.336;2022-12-17T01:32:38;77;67;
63662;PMS5003;49815;51.618;0.336;2022-12-17T01:35:04;61;56;
63662;PMS5003;49815;51.618;0.336;2022-12-17T01:37:29;60;50;
63662;PMS5003;49815;51.618;0.336;2022-12-17T01:39:55;61;58;
63662;PMS5003;49815;51.618;0.336;2022-12-17T01:42:20;70;60;
63662;PMS5003;49815;51.618;0.336;2022-12-17T01:44:48;56;53;
63662;PMS5003;49815;51.618;0.336;2022-12-17T01:47:11;87;83;
63662;PMS5003;49815;51.618;0.336;2022-12-17T01:49:37;63;49;
63662;PMS5003;49815;51.618;0.336;2022-12-17T01:52:04;43;39;
63662;PMS5003;49815;51.618;0.336;2022-12-17T01:54:28;46;40;
63662;PMS5003;49815;51.618;0.336;2022-12-17T01:56:54;47;37;
63662;PMS5003;49815;51.618;0.336;2022-12-17T01:59:20;61;55;
63662;PMS5003;49815;51.618;0.336;2022-12-17T02:01:45;43;37;
63662;PMS5003;49815;51.618;0.336;2022-12-17T02:04:10;49;47;
63662;PMS5003;49815;51.618;0.336;2022-12-17T02:06:35;55;55;
63662;PMS5003;49815;51.618;0.336;2022-12-17T02:09:03;50;48;
63662;PMS5003;49815;51.618;0.336;2022-12-17T02:11:30;109;104;
63662;PMS5003;49815;51.618;0.336;2022-12-17T02:13:54;42;36;
63662;PMS5003;49815;51.618;0.336;2022-12-17T02:16:19;58;54;
63662;PMS5003;49815;51.618;0.336;2022-12-17T02:18:44;37;37;
63662;PMS5003;49815;51.618;0.336;2022-12-17T02:21:09;54;42;
63662;PMS5003;49815;51.618;0.336;2022-12-17T02:23:36;47;42;
63662;PMS5003;49815;51.618;0.336;2022-12-17T02:26:00;64;62;
63662;PMS5003;49815;51.618;0.336;2022-12-17T02:28:24;51;43;
63662;PMS5003;49815;51.618;0.336;2022-12-17T02:30:50;48;44;
63662;PMS5003;49815;51.618;0.336;2022-12-17T02:33:15;48;39;
63662;PMS5003;49815;51.618;0.336;2022-12-17T02:35:41;63;60;
63662;PMS5003;49815;51.618;0.336;2022-12-17T02:40:31;33;29;
63662;PMS5003;49815;51.618;0.336;2022-12-17T02:42:57;60;51;
63662;PMS5003;49815;51.618;0.336;2022-12-17T02:45:23;65;62;
63662;PMS5003;49815;51.618;0.336;2022-12-17T02:47:48;94;80;
63662;PMS5003;49815;51.618;0.336;2022-12-17T02:50:13;32;29;
63662;PMS5003;49815;51.618;0.336;2022-12-17T02:52:40;51;50;
63662;PMS5003;49815;51.618;0.336;2022-12-17T02:55:05;75;75;
63662;PMS5003;49815;51.618;0.336;2022-12-17T02:57:30;30;30;
63662;PMS5003;49815;51.618;0.336;2022-12-17T02:59:55;27;27;
63662;PMS5003;49815;51.618;0.336;2022-12-17T03:02:20;71;68;
63662;PMS5003;49815;51.618;0.336;2022-12-17T03:04:47;50;46;
63662;PMS5003;49815;51.618;0.336;2022-12-17T03:07:12;75;72;
63662;PMS5003;49815;51.618;0.336;2022-12-17T03:09:38;33;32;
63662;PMS5003;49815;51.618;0.336;2022-12-17T03:12:04;40;33;
63662;PMS5003;49815;51.618;0.336;2022-12-17T03:14:28;25;23;
63662;PMS5003;49815;51.618;0.336;2022-12-17T03:16:54;43;38;
63662;PMS5003;49815;51.618;0.336;2022-12-17T03:19:20;45;45;
63662;PMS5003;49815;51.618;0.336;2022-12-17T03:21:44;49;45;
63662;PMS5003;49815;51.618;0.336;2022-12-17T03:24:10;37;36;
63662;PMS5003;49815;51.618;0.336;2022-12-17T03:26:36;30;30;
63662;PMS5003;49815;51.618;0.336;2022-12-17T03:29:01;36;34;
63662;PMS5003;49815;51.618;0.336;2022-12-17T03:31:26;34;34;
63662;PMS5003;49815;51.618;0.336;2022-12-17T03:33:52;37;31;
63662;PMS5003;49815;51.618;0.336;2022-12-17T03:36:17;34;34;
63662;PMS5003;49815;51.618;0.336;2022-12-17T03:38:42;36;36;
63662;PMS5003;49815;51.618;0.336;2022-12-17T03:41:07;36;33;
63662;PMS5003;49815;51.618;0.336;2022-12-17T03:43:33;30;27;
63662;PMS5003;49815;51.618;0.336;2022-12-17T03:45:59;37;36;
63662;PMS5003;49815;51.618;0.336;2022-12-17T03:48:23;38;36;
63662;PMS5003;49815;51.618;0.336;2022-12-17T03:50:49;31;31;
63662;PMS5003;49815;51.618;0.336;2022-12-17T03:53:14;34;31;
63662;PMS5003;49815;51.618;0.336;2022-12-17T03:55:39;32;29;
63662;PMS5003;49815;51.618;0.336;2022-12-17T03:58:05;48;48;
63662;PMS5003;49815;51.618;0.336;2022-12-17T04:00:30;50;50;
63662;PMS5003;49815;51.618;0.336;2022-12-17T04:02:55;49;49;
63662;PMS5003;49815;51.618;0.336;2022-12-17T04:05:21;31;29;
63662;PMS5003;49815;51.618;0.336;2022-12-17T04:07:46;26;23;
63662;PMS5003;49815;51.618;0.336;2022-12-17T04:10:12;36;31;
63662;PMS5003;49815;51.618;0.336;2022-12-17T04:12:38;29;29;
63662;PMS5003;49815;51.618;0.336;2022-12-17T04:15:04;26;26;
63662;PMS5003;49815;51.618;0.336;2022-12-17T04:17:28;23;23;
63662;PMS5003;49815;51.618;0.336;2022-12-17T04:19:53;29;25;
63662;PMS5003;49815;51.618;0.336;2022-12-17T04:22:19;37;31;
63662;PMS5003;49815;51.618;0.336;2022-12-17T04:24:44;31;27;
63662;PMS5003;49815;51.618;0.336;2022-12-17T04:27:08;34;30;
63662;PMS5003;49815;51.618;0.336;2022-12-17T04:29:34;31;31;
63662;PMS5003;49815;51.618;0.336;2022-12-17T04:31:59;31;30;
63662;PMS5003;49815;51.618;0.336;2022-12-17T04:34:24;29;29;
63662;PMS5003;49815;51.618;0.336;2022-12-17T04:36:50;13;12;
63662;PMS5003;49815;51.618;0.336;2022-12-17T04:39:16;20;18;
63662;PMS5003;49815;51.618;0.336;2022-12-17T04:41:40;19;16;
63662;PMS5003;49815;51.618;0.336;2022-12-17T04:44:05;15;12;
63662;PMS5003;49815;51.618;0.336;2022-12-17T04:46:30;11;11;
63662;PMS5003;49815;51.618;0.336;2022-12-17T04:48:56;11;11;
63662;PMS5003;49815;51.618;0.336;2022-12-17T04:51:20;8;8;
63662;PMS5003;49815;51.618;0.336;2022-12-17T04:53:46;6;5;
63662;PMS5003;49815;51.618;0.336;2022-12-17T04:56:11;4;4;
63662;PMS5003;49815;51.618;0.336;2022-12-17T04:58:36;4;4;
63662;PMS5003;49815;51.618;0.336;2022-12-17T05:01:01;6;5;
63662;PMS5003;49815;51.618;0.336;2022-12-17T05:03:26;6;6;
63662;PMS5003;49815;51.618;0.336;2022-12-17T05:05:51;8;5;
63662;PMS5003;49815;51.618;0.336;2022-12-17T05:08:16;6;6;
63662;PMS5003;49815;51.618;0.336;2022-12-17T05:10:42;5;5;
63662;PMS5003;49815;51.618;0.336;2022-12-17T05:13:08;8;6;
63662;PMS5003;49815;51.618;0.336;2022-12-17T05:15:31;5;4;
63662;PMS5003;49815;51.618;0.336;2022-12-17T05:20:22;5;5;
63662;PMS5003;49815;51.618;0.336;2022-12-17T05:22:47;8;6;
63662;PMS5003;49815;51.618;0.336;2022-12-17T05:25:12;6;6;
63662;PMS5003;49815;51.618;0.336;2022-12-17T05:27:37;5;5;
63662;PMS5003;49815;51.618;0.336;2022-12-17T05:30:03;11;6;
63662;PMS5003;49815;51.618;0.336;2022-12-17T05:32:27;11;8;
63662;PMS5003;49815;51.618;0.336;2022-12-17T05:34:52;9;9;
63662;PMS5003;49815;51.618;0.336;2022-12-17T05:37:18;9;9;
63662;PMS5003;49815;51.618;0.336;2022-12-17T05:39:43;9;8;
63662;PMS5003;49815;51.618;0.336;2022-12-17T05:42:08;16;15;
63662;PMS5003;49815;51.618;0.336;2022-12-17T05:44:33;11;8;
63662;PMS5003;49815;51.618;0.336;2022-12-17T05:46:59;11;9;
63662;PMS5003;49815;51.618;0.336;2022-12-17T05:49:23;12;11;
63662;PMS5003;49815;51.618;0.336;2022-12-17T05:51:49;8;6;
63662;PMS5003;49815;51.618;0.336;2022-12-17T05:54:14;11;8;
63662;PMS5003;49815;51.618;0.336;2022-12-17T05:56:39;8;8;
63662;PMS5003;49815;51.618;0.336;2022-12-17T05:59:05;8;8;
63662;PMS5003;49815;51.618;0.336;2022-12-17T06:01:30;13;12;
63662;PMS5003;49815;51.618;0.336;2022-12-17T06:03:56;8;8;
63662;PMS5003;49815;51.618;0.336;2022-12-17T06:06:23;13;12;
63662;PMS5003;49815;51.618;0.336;2022-12-17T06:08:46;8;8;
63662;PMS5003;49815;51.618;0.336;2022-12-17T06:11:11;9;9;
63662;PMS5003;49815;51.618;0.336;2022-12-17T06:13:36;12;12;
63662;PMS5003;49815;51.618;0.336;2022-12-17T06:16:01;16;10;
63662;PMS5003;49815;51.618;0.336;2022-12-17T06:18:27;12;12;
63662;PMS5003;49815;51.618;0.336;2022-12-17T06:20:52;15;15;
63662;PMS5003;49815;51.618;0.336;2022-12-17T06:23:17;16;14;
63662;PMS5003;49815;51.618;0.336;2022-12-17T06:25:42;20;20;
63662;PMS5003;49815;51.618;0.336;2022-12-17T06:28:07;21;13;
63662;PMS5003;49815;51.618;0.336;2022-12-17T06:30:32;16;12;
63662;PMS5003;49815;51.618;0.336;2022-12-17T06:33:04;18;14;
63662;PMS5003;49815;51.618;0.336;2022-12-17T06:35:23;13;13;
63662;PMS5003;49815;51.618;0.336;2022-12-17T06:40:14;13;12;
63662;PMS5003;49815;51.618;0.336;2022-12-17T06:42:40;14;13;
63662;PMS5003;49815;51.618;0.336;2022-12-17T06:45:06;14;12;
63662;PMS5003;49815;51.618;0.336;2022-12-17T06:47:30;18;13;
63662;PMS5003;49815;51.618;0.336;2022-12-17T06:49:55;12;12;
63662;PMS5003;49815;51.618;0.336;2022-12-17T06:52:20;14;14;
63662;PMS5003;49815;51.618;0.336;2022-12-17T06:54:45;12;12;
63662;PMS5003;49815;51.618;0.336;2022-12-17T06:57:11;12;12;
63662;PMS5003;49815;51.618;0.336;2022-12-17T06:59:36;16;12;
63662;PMS5003;49815;51.618;0.336;2022-12-17T07:02:02;12;12;
63662;PMS5003;49815;51.618;0.336;2022-12-17T07:04:27;13;13;
63662;PMS5003;49815;51.618;0.336;2022-12-17T07:06:52;12;12;
63662;PMS5003;49815;51.618;0.336;2022-12-17T07:09:18;14;12;
63662;PMS5003;49815;51.618;0.336;2022-12-17T07:11:43;13;13;
63662;PMS5003;49815;51.618;0.336;2022-12-17T07:14:07;14;12;
63662;PMS5003;49815;51.618;0.336;2022-12-17T07:16:32;14;13;
63662;PMS5003;49815;51.618;0.336;2022-12-17T07:18:58;18;16;
63662;PMS5003;49815;51.618;0.336;2022-12-17T07:21:24;10;10;
63662;PMS5003;49815;51.618;0.336;2022-12-17T07:23:49;10;10;
63662;PMS5003;49815;51.618;0.336;2022-12-17T07:26:14;13;13;
63662;PMS5003;49815;51.618;0.336;2022-12-17T07:28:40;19;14;
63662;PMS5003;49815;51.618;0.336;2022-12-17T07:31:06;12;12;
63662;PMS5003;49815;51.618;0.336;2022-12-17T07:33:30;13;10;
63662;PMS5003;49815;51.618;0.336;2022-12-17T07:35:55;15;15;
63662;PMS5003;49815;51.618;0.336;2022-12-17T07:38:20;17;15;
63662;PMS5003;49815;51.618;0.336;2022-12-17T07:40:45;17;16;
63662;PMS5003;49815;51.618;0.336;2022-12-17T07:43:11;17;17;
63662;PMS5003;49815;51.618;0.336;2022-12-17T07:45:36;18;14;
63662;PMS5003;49815;51.618;0.336;2022-12-17T07:48:01;18;13;
63662;PMS5003;49815;51.618;0.336;2022-12-17T07:50:26;17;17;
63662;PMS5003;49815;51.618;0.336;2022-12-17T07:55:17;17;13;
63662;PMS5003;49815;51.618;0.336;2022-12-17T07:57:42;15;11;
63662;PMS5003;49815;51.618;0.336;2022-12-17T08:00:08;11;11;
63662;PMS5003;49815;51.618;0.336;2022-12-17T08:02:33;10;10;
63662;PMS5003;49815;51.618;0.336;2022-12-17T08:05:00;9;9;
63662;PMS5003;49815;51.618;0.336;2022-12-17T08:07:25;11;11;
63662;PMS5003;49815;51.618;0.336;2022-12-17T08:09:51;13;10;
63662;PMS5003;49815;51.618;0.336;2022-12-17T08:12:17;11;11;
63662;PMS5003;49815;51.618;0.336;2022-12-17T08:14:43;13;13;
63662;PMS5003;49815;51.618;0.336;2022-12-17T08:17:09;14;11;
63662;PMS5003;49815;51.618;0.336;2022-12-17T08:19:33;13;13;
63662;PMS5003;49815;51.618;0.336;2022-12-17T08:21:58;20;13;
63662;PMS5003;49815;51.618;0.336;2022-12-17T08:24:24;10;10;
63662;PMS5003;49815;51.618;0.336;2022-12-17T08:26:51;11;10;
63662;PMS5003;49815;51.618;0.336;2022-12-17T08:29:16;10;10;
63662;PMS5003;49815;51.618;0.336;2022-12-17T08:31:42;10;9;
63662;PMS5003;49815;51.618;0.336;2022-12-17T08:34:09;15;10;
63662;PMS5003;49815;51.618;0.336;2022-12-17T08:36:33;13;10;
63662;PMS5003;49815;51.618;0.336;2022-12-17T08:38:57;13;10;
63662;PMS5003;49815;51.618;0.336;2022-12-17T08:41:23;14;10;
63662;PMS5003;49815;51.618;0.336;2022-12-17T08:43:49;12;12;
63662;PMS5003;49815;51.618;0.336;2022-12-17T08:46:16;9;9;
63662;PMS5003;49815;51.618;0.336;2022-12-17T08:48:41;18;11;
63662;PMS5003;49815;51.618;0.336;2022-12-17T08:51:07;12;12;
63662;PMS5003;49815;51.618;0.336;2022-12-17T08:53:32;12;9;
63662;PMS5003;49815;51.618;0.336;2022-12-17T08:55:58;19;19;
63662;PMS5003;49815;51.618;0.336;2022-12-17T08:58:23;17;17;
63662;PMS5003;49815;51.618;0.336;2022-12-17T09:00:48;16;14;
63662;PMS5003;49815;51.618;0.336;2022-12-17T09:03:14;14;14;
63662;PMS5003;49815;51.618;0.336;2022-12-17T09:05:40;14;12;
63662;PMS5003;49815;51.618;0.336;2022-12-17T09:08:07;12;11;
63662;PMS5003;49815;51.618;0.336;2022-12-17T09:10:31;14;12;
63662;PMS5003;49815;51.618;0.336;2022-12-17T09:13:00;16;15;
63662;PMS5003;49815;51.618;0.336;2022-12-17T09:15:23;12;11;
63662;PMS5003;49815;51.618;0.336;2022-12-17T09:17:50;17;15;
63662;PMS5003;49815;51.618;0.336;2022-12-17T09:20:15;13;11;
63662;PMS5003;49815;51.618;0.336;2022-12-17T09:22:40;13;11;
63662;PMS5003;49815;51.618;0.336;2022-12-17T09:25:06;15;13;
63662;PMS5003;49815;51.618;0.336;2022-12-17T09:27:31;10;10;
63662;PMS5003;49815;51.618;0.336;2022-12-17T09:29:57;17;13;
63662;PMS5003;49815;51.618;0.336;2022-12-17T09:32:23;11;11;
63662;PMS5003;49815;51.618;0.336;2022-12-17T09:34:48;15;14;
63662;PMS5003;49815;51.618;0.336;2022-12-17T09:37:15;18;16;
63662;PMS5003;49815;51.618;0.336;2022-12-17T09:39:40;16;13;
63662;PMS5003;49815;51.618;0.336;2022-12-17T09:42:07;13;12;
63662;PMS5003;49815;51.618;0.336;2022-12-17T09:44:33;14;12;
63662;PMS5003;49815;51.618;0.336;2022-12-17T09:46:58;14;14;
63662;PMS5003;49815;51.618;0.336;2022-12-17T09:49:23;16;12;
63662;PMS5003;49815;51.618;0.336;2022-12-17T09:51:48;14;13;
63662;PMS5003;49815;51.618;0.336;2022-12-17T09:54:19;12;9;
63662;PMS5003;49815;51.618;0.336;2022-12-17T09:56:39;17;14;
63662;PMS5003;49815;51.618;0.336;2022-12-17T09:59:05;14;14;
63662;PMS5003;49815;51.618;0.336;2022-12-17T10:01:32;17;17;
63662;PMS5003;49815;51.618;0.336;2022-12-17T10:03:57;22;22;
63662;PMS5003;49815;51.618;0.336;2022-12-17T10:06:23;23;20;
63662;PMS5003;49815;51.618;0.336;2022-12-17T10:08:47;19;17;
63662;PMS5003;49815;51.618;0.336;2022-12-17T10:11:17;17;17;
63662;PMS5003;49815;51.618;0.336;2022-12-17T10:13:39;14;13;
63662;PMS5003;49815;51.618;0.336;2022-12-17T10:18:30;15;15;
63662;PMS5003;49815;51.618;0.336;2022-12-17T10:20:56;17;14;
63662;PMS5003;49815;51.618;0.336;2022-12-17T10:23:22;18;17;
63662;PMS5003;49815;51.618;0.336;2022-12-17T10:25:50;18;17;
63662;PMS5003;49815;51.618;0.336;2022-12-17T10:28:13;13;13;
63662;PMS5003;49815;51.618;0.336;2022-12-17T10:30:37;16;15;
63662;PMS5003;49815;51.618;0.336;2022-12-17T10:33:05;13;13;
63662;PMS5003;49815;51.618;0.336;2022-12-17T10:35:34;14;14;
63662;PMS5003;49815;51.618;0.336;2022-12-17T10:37:55;14;13;
63662;PMS5003;49815;51.618;0.336;2022-12-17T10:40:22;18;13;
63662;PMS5003;49815;51.618;0.336;2022-12-17T10:42:45;14;14;
63662;PMS5003;49815;51.618;0.336;2022-12-17T10:47:42;12;12;
63662;PMS5003;49815;51.618;0.336;2022-12-17T10:50:03;15;15;
63662;PMS5003;49815;51.618;0.336;2022-12-17T10:52:28;16;13;
63662;PMS5003;49815;51.618;0.336;2022-12-17T10:54:55;15;15;
63662;PMS5003;49815;51.618;0.336;2022-12-17T10:57:22;13;13;
63662;PMS5003;49815;51.618;0.336;2022-12-17T10:59:45;18;14;
63662;PMS5003;49815;51.618;0.336;2022-12-17T11:02:11;19;14;
63662;PMS5003;49815;51.618;0.336;2022-12-17T11:04:37;15;15;
63662;PMS5003;49815;51.618;0.336;2022-12-17T11:07:02;18;16;
63662;PMS5003;49815;51.618;0.336;2022-12-17T11:09:30;20;16;
63662;PMS5003;49815;51.618;0.336;2022-12-17T11:11:53;16;16;
63662;PMS5003;49815;51.618;0.336;2022-12-17T11:14:18;16;15;
63662;PMS5003;49815;51.618;0.336;2022-12-17T11:16:46;15;15;
63662;PMS5003;49815;51.618;0.336;2022-12-17T11:21:38;17;17;
63662;PMS5003;49815;51.618;0.336;2022-12-17T11:24:00;19;17;
63662;PMS5003;49815;51.618;0.336;2022-12-17T11:26:26;20;16;
63662;PMS5003;49815;51.618;0.336;2022-12-17T11:28:51;17;15;
63662;PMS5003;49815;51.618;0.336;2022-12-17T11:31:24;16;15;
63662;PMS5003;49815;51.618;0.336;2022-12-17T11:33:43;17;15;
63662;PMS5003;49815;51.618;0.336;2022-12-17T11:36:09;18;14;
63662;PMS5003;49815;51.618;0.336;2022-12-17T11:38:34;18;17;
63662;PMS5003;49815;51.618;0.336;2022-12-17T11:41:00;14;12;
63662;PMS5003;49815;51.618;0.336;2022-12-17T11:43:27;16;15;
63662;PMS5003;49815;51.618;0.336;2022-12-17T11:45:54;17;14;
63662;PMS5003;49815;51.618;0.336;2022-12-17T11:48:19;18;14;
63662;PMS5003;49815;51.618;0.336;2022-12-17T11:50:43;16;14;
63662;PMS5003;49815;51.618;0.336;2022-12-17T11:53:10;17;17;
63662;PMS5003;49815;51.618;0.336;2022-12-17T11:55:35;17;16;
63662;PMS5003;49815;51.618;0.336;2022-12-17T11:58:01;18;15;
63662;PMS5003;49815;51.618;0.336;2022-12-17T12:00:26;18;16;
63662;PMS5003;49815;51.618;0.336;2022-12-17T12:02:53;22;19;
63662;PMS5003;49815;51.618;0.336;2022-12-17T12:05:20;16;14;
63662;PMS5003;49815;51.618;0.336;2022-12-17T12:07:44;18;16;
63662;PMS5003;49815;51.618;0.336;2022-12-17T12:10:09;19;17;
63662;PMS5003;49815;51.618;0.336;2022-12-17T12:12:37;14;14;
63662;PMS5003;49815;51.618;0.336;2022-12-17T12:15:00;17;17;
63662;PMS5003;49815;51.618;0.336;2022-12-17T12:17:27;18;18;
63662;PMS5003;49815;51.618;0.336;2022-12-17T12:19:50;18;18;
63662;PMS5003;49815;51.618;0.336;2022-12-17T12:22:15;18;18;
63662;PMS5003;49815;51.618;0.336;2022-12-17T12:24:45;18;17;
63662;PMS5003;49815;51.618;0.336;2022-12-17T12:27:07;18;17;
63662;PMS5003;49815;51.618;0.336;2022-12-17T12:29:32;21;18;
63662;PMS5003;49815;51.618;0.336;2022-12-17T12:31:57;17;17;
63662;PMS5003;49815;51.618;0.336;2022-12-17T12:34:23;16;14;
63662;PMS5003;49815;51.618;0.336;2022-12-17T12:36:48;18;16;
63662;PMS5003;49815;51.618;0.336;2022-12-17T12:39:15;18;15;
63662;PMS5003;49815;51.618;0.336;2022-12-17T12:41:41;15;14;
63662;PMS5003;49815;51.618;0.336;2022-12-17T12:44:05;21;19;
63662;PMS5003;49815;51.618;0.336;2022-12-17T12:46:31;17;12;
63662;PMS5003;49815;51.618;0.336;2022-12-17T12:48:55;17;17;
63662;PMS5003;49815;51.618;0.336;2022-12-17T12:51:21;15;15;
63662;PMS5003;49815;51.618;0.336;2022-12-17T12:58:36;24;21;
63662;PMS5003;49815;51.618;0.336;2022-12-17T13:01:02;19;17;
63662;PMS5003;49815;51.618;0.336;2022-12-17T13:03:28;18;13;
63662;PMS5003;49815;51.618;0.336;2022-12-17T13:05:53;16;12;
63662;PMS5003;49815;51.618;0.336;2022-12-17T13:08:20;12;11;
63662;PMS5003;49815;51.618;0.336;2022-12-17T13:10:44;15;15;
63662;PMS5003;49815;51.618;0.336;2022-12-17T13:13:10;21;17;
63662;PMS5003;49815;51.618;0.336;2022-12-17T13:15:36;17;13;
63662;PMS5003;49815;51.618;0.336;2022-12-17T13:18:03;17;16;
63662;PMS5003;49815;51.618;0.336;2022-12-17T13:20:28;13;12;
63662;PMS5003;49815;51.618;0.336;2022-12-17T13:22:53;18;18;
63662;PMS5003;49815;51.618;0.336;2022-12-17T13:25:19;25;23;
63662;PMS5003;49815;51.618;0.336;2022-12-17T13:27:44;17;14;
63662;PMS5003;49815;51.618;0.336;2022-12-17T13:32:37;16;16;
63662;PMS5003;49815;51.618;0.336;2022-12-17T13:35:05;17;16;
63662;PMS5003;49815;51.618;0.336;2022-12-17T13:37:28;20;18;
63662;PMS5003;49815;51.618;0.336;2022-12-17T13:39:53;20;16;
63662;PMS5003;49815;51.618;0.336;2022-12-17T13:42:18;18;17;
63662;PMS5003;49815;51.618;0.336;2022-12-17T13:44:44;16;16;
63662;PMS5003;49815;51.618;0.336;2022-12-17T13:49:34;19;17;
63662;PMS5003;49815;51.618;0.336;2022-12-17T13:52:01;17;17;
63662;PMS5003;49815;51.618;0.336;2022-12-17T13:54:25;17;16;
63662;PMS5003;49815;51.618;0.336;2022-12-17T13:56:51;21;21;
63662;PMS5003;49815;51.618;0.336;2022-12-17T13:59:18;21;21;
63662;PMS5003;49815;51.618;0.336;2022-12-17T14:01:43;18;18;
63662;PMS5003;49815;51.618;0.336;2022-12-17T14:04:17;21;18;
63662;PMS5003;49815;51.618;0.336;2022-12-17T14:06:36;25;19;
63662;PMS5003;49815;51.618;0.336;2022-12-17T14:08:59;25;22;
63662;PMS5003;49815;51.618;0.336;2022-12-17T14:11:23;19;17;
63662;PMS5003;49815;51.618;0.336;2022-12-17T14:13:49;22;22;
63662;PMS5003;49815;51.618;0.336;2022-12-17T14:16:14;24;22;
63662;PMS5003;49815;51.618;0.336;2022-12-17T14:18:40;19;19;
63662;PMS5003;49815;51.618;0.336;2022-12-17T14:21:06;22;22;
63662;PMS5003;49815;51.618;0.336;2022-12-17T14:23:31;18;17;
63662;PMS5003;49815;51.618;0.336;2022-12-17T14:25:56;21;21;
63662;PMS5003;49815;51.618;0.336;2022-12-17T14:28:22;21;16;
63662;PMS5003;49815;51.618;0.336;2022-12-17T14:30:47;23;23;
63662;PMS5003;49815;51.618;0.336;2022-12-17T14:35:38;23;18;
63662;PMS5003;49815;51.618;0.336;2022-12-17T14:38:03;20;17;
63662;PMS5003;49815;51.618;0.336;2022-12-17T14:40:29;23;20;
63662;PMS5003;49815;51.618;0.336;2022-12-17T14:42:57;18;18;
63662;PMS5003;49815;51.618;0.336;2022-12-17T14:45:21;24;24;
63662;PMS5003;49815;51.618;0.336;2022-12-17T14:52:39;27;23;
63662;PMS5003;49815;51.618;0.336;2022-12-17T14:57:27;22;22;
63662;PMS5003;49815;51.618;0.336;2022-12-17T14:59:54;25;22;
63662;PMS5003;49815;51.618;0.336;2022-12-17T15:02:20;30;30;
63662;PMS5003;49815;51.618;0.336;2022-12-17T15:04:43;28;28;
63662;PMS5003;49815;51.618;0.336;2022-12-17T15:07:09;31;25;
63662;PMS5003;49815;51.618;0.336;2022-12-17T15:09:34;24;22;
63662;PMS5003;49815;51.618;0.336;2022-12-17T15:12:00;28;25;
63662;PMS5003;49815;51.618;0.336;2022-12-17T15:14:26;38;34;
63662;PMS5003;49815;51.618;0.336;2022-12-17T15:16:51;33;32;
63662;PMS5003;49815;51.618;0.336;2022-12-17T15:19:17;37;35;
63662;PMS5003;49815;51.618;0.336;2022-12-17T15:21:42;41;37;
63662;PMS5003;49815;51.618;0.336;2022-12-17T15:24:09;37;31;
63662;PMS5003;49815;51.618;0.336;2022-12-17T15:26:32;40;37;
63662;PMS5003;49815;51.618;0.336;2022-12-17T15:28:58;41;33;
63662;PMS5003;49815;51.618;0.336;2022-12-17T15:31:25;36;31;
63662;PMS5003;49815;51.618;0.336;2022-12-17T15:33:49;34;34;
63662;PMS5003;49815;51.618;0.336;2022-12-17T15:36:15;36;31;
63662;PMS5003;49815;51.618;0.336;2022-12-17T15:38:40;25;25;
63662;PMS5003;49815;51.618;0.336;2022-12-17T15:41:06;28;28;
63662;PMS5003;49815;51.618;0.336;2022-12-17T15:43:31;21;21;
63662;PMS5003;49815;51.618;0.336;2022-12-17T15:45:58;23;23;
63662;PMS5003;49815;51.618;0.336;2022-12-17T15:48:21;26;24;
63662;PMS5003;49815;51.618;0.336;2022-12-17T15:50:46;29;25;
63662;PMS5003;49815;51.618;0.336;2022-12-17T15:53:12;26;24;
63662;PMS5003;49815;51.618;0.336;2022-12-17T15:55:37;30;24;
63662;PMS5003;49815;51.618;0.336;2022-12-17T15:58:03;35;33;
63662;PMS5003;49815;51.618;0.336;2022-12-17T16:00:28;33;29;
63662;PMS5003;49815;51.618;0.336;2022-12-17T16:02:53;35;33;
63662;PMS5003;49815;51.618;0.336;2022-12-17T16:05:20;41;37;
63662;PMS5003;49815;51.618;0.336;2022-12-17T16:07:45;43;34;
63662;PMS5003;49815;51.618;0.336;2022-12-17T16:10:10;45;40;
63662;PMS5003;49815;51.618;0.336;2022-12-17T16:12:36;39;36;
63662;PMS5003;49815;51.618;0.336;2022-12-17T16:15:01;43;43;
63662;PMS5003;49815;51.618;0.336;2022-12-17T16:17:27;36;34;
63662;PMS5003;49815;51.618;0.336;2022-12-17T16:19:52;36;30;
63662;PMS5003;49815;51.618;0.336;2022-12-17T16:22:17;30;29;
63662;PMS5003;49815;51.618;0.336;2022-12-17T16:24:43;25;24;
63662;PMS5003;49815;51.618;0.336;2022-12-17T16:27:08;34;27;
63662;PMS5003;49815;51.618;0.336;2022-12-17T16:29:33;31;28;
63662;PMS5003;49815;51.618;0.336;2022-12-17T16:31:59;24;22;
63662;PMS5003;49815;51.618;0.336;2022-12-17T16:34:25;23;22;
63662;PMS5003;49815;51.618;0.336;2022-12-17T16:36:50;24;22;
63662;PMS5003;49815;51.618;0.336;2022-12-17T16:39:17;25;23;
63662;PMS5003;49815;51.618;0.336;2022-12-17T16:41:42;30;28;
63662;PMS5003;49815;51.618;0.336;2022-12-17T16:44:08;31;22;